sensor_id;sensor_type;location;lat;lon;timestamp;P1;durP1;ratioP1;P2;durP2;ratioP2
36599;SDS011;35385;55.668;37.508;2023-04-01T00:00:18;14.90;;;10.37;;
36599;SDS011;35385;55.668;37.508;2023-04-01T00:01:18;12.48;;;9.77;;
36599;SDS011;35385;55.668;37.508;2023-04-01T00:02:19;12.48;;;10.30;;
36599;SDS011;35385;55.668;37.508;2023-04-01T00:03:21;17.15;;;10.43;;
36599;SDS011;35385;55.668;37.508;2023-04-01T00:04:22;14.98;;;10.23;;
36599;SDS011;35385;55.668;37.508;2023-04-01T00:05:22;15.33;;;10.17;;
36599;SDS011;35385;55.668;37.508;2023-04-01T00:06:24;12.95;;;9.95;;
36599;SDS011;35385;55.668;37.508;2023-04-01T00:07:25;13.38;;;10.00;;
36599;SDS011;35385;55.668;37.508;2023-04-01T00:08:26;14.87;;;10.60;;
36599;SDS011;35385;55.668;37.508;2023-04-01T00:09:27;14.63;;;10.50;;
36599;SDS011;35385;55.668;37.508;2023-04-01T00:10:27;13.30;;;9.57;;
36599;SDS011;35385;55.668;37.508;2023-04-01T00:11:28;13.70;;;10.10;;
36599;SDS011;35385;55.668;37.508;2023-04-01T00:12:28;11.87;;;9.17;;
36599;SDS011;35385;55.668;37.508;2023-04-01T00:13:29;11.48;;;9.65;;
36599;SDS011;35385;55.668;37.508;2023-04-01T00:14:30;12.07;;;9.10;;
36599;SDS011;35385;55.668;37.508;2023-04-01T00:15:30;12.33;;;9.23;;
36599;SDS011;35385;55.668;37.508;2023-04-01T00:16:31;13.03;;;9.87;;
36599;SDS011;35385;55.668;37.508;2023-04-01T00:17:32;12.93;;;10.10;;
36599;SDS011;35385;55.668;37.508;2023-04-01T00:18:33;12.27;;;9.48;;
36599;SDS011;35385;55.668;37.508;2023-04-01T00:19:33;13.17;;;9.83;;
36599;SDS011;35385;55.668;37.508;2023-04-01T00:20:34;11.43;;;9.40;;
36599;SDS011;35385;55.668;37.508;2023-04-01T00:21:34;14.10;;;10.20;;
36599;SDS011;35385;55.668;37.508;2023-04-01T00:22:36;13.07;;;9.90;;
36599;SDS011;35385;55.668;37.508;2023-04-01T00:23:37;13.27;;;9.90;;
36599;SDS011;35385;55.668;37.508;2023-04-01T00:24:38;12.10;;;10.00;;
36599;SDS011;35385;55.668;37.508;2023-04-01T00:25:39;13.02;;;10.00;;
36599;SDS011;35385;55.668;37.508;2023-04-01T00:26:39;13.13;;;10.47;;
36599;SDS011;35385;55.668;37.508;2023-04-01T00:27:42;13.63;;;10.15;;
36599;SDS011;35385;55.668;37.508;2023-04-01T00:28:42;14.07;;;10.07;;
36599;SDS011;35385;55.668;37.508;2023-04-01T00:29:43;13.10;;;10.40;;
36599;SDS011;35385;55.668;37.508;2023-04-01T00:30:45;12.15;;;10.10;;
36599;SDS011;35385;55.668;37.508;2023-04-01T00:31:46;13.10;;;10.13;;
36599;SDS011;35385;55.668;37.508;2023-04-01T00:32:51;13.45;;;10.70;;
36599;SDS011;35385;55.668;37.508;2023-04-01T00:33:52;12.40;;;9.95;;
36599;SDS011;35385;55.668;37.508;2023-04-01T00:34:53;13.00;;;10.50;;
36599;SDS011;35385;55.668;37.508;2023-04-01T00:35:53;12.87;;;10.70;;
36599;SDS011;35385;55.668;37.508;2023-04-01T00:36:54;13.67;;;10.37;;
36599;SDS011;35385;55.668;37.508;2023-04-01T00:37:55;11.93;;;9.80;;
36599;SDS011;35385;55.668;37.508;2023-04-01T00:38:56;12.57;;;9.60;;
36599;SDS011;35385;55.668;37.508;2023-04-01T00:39:58;12.63;;;10.40;;
36599;SDS011;35385;55.668;37.508;2023-04-01T00:40:59;12.83;;;10.30;;
36599;SDS011;35385;55.668;37.508;2023-04-01T00:42:00;13.87;;;9.77;;
36599;SDS011;35385;55.668;37.508;2023-04-01T00:43:02;12.82;;;10.18;;
36599;SDS011;35385;55.668;37.508;2023-04-01T00:45:41;13.68;;;10.18;;
36599;SDS011;35385;55.668;37.508;2023-04-01T00:46:43;12.82;;;9.82;;
36599;SDS011;35385;55.668;37.508;2023-04-01T00:47:43;12.93;;;10.45;;
36599;SDS011;35385;55.668;37.508;2023-04-01T00:48:48;13.03;;;10.40;;
36599;SDS011;35385;55.668;37.508;2023-04-01T00:49:52;12.82;;;10.10;;
36599;SDS011;35385;55.668;37.508;2023-04-01T00:50:56;13.63;;;10.75;;
36599;SDS011;35385;55.668;37.508;2023-04-01T00:52:01;13.43;;;10.60;;
36599;SDS011;35385;55.668;37.508;2023-04-01T00:53:03;12.27;;;10.20;;
36599;SDS011;35385;55.668;37.508;2023-04-01T00:54:07;11.85;;;9.68;;
36599;SDS011;35385;55.668;37.508;2023-04-01T00:55:09;11.68;;;9.98;;
36599;SDS011;35385;55.668;37.508;2023-04-01T00:56:14;11.93;;;9.70;;
36599;SDS011;35385;55.668;37.508;2023-04-01T00:58:25;12.90;;;10.20;;
36599;SDS011;35385;55.668;37.508;2023-04-01T00:59:30;12.60;;;10.20;;
36599;SDS011;35385;55.668;37.508;2023-04-01T01:00:33;11.93;;;9.82;;
36599;SDS011;35385;55.668;37.508;2023-04-01T01:01:35;11.45;;;9.60;;
36599;SDS011;35385;55.668;37.508;2023-04-01T01:02:36;12.97;;;10.13;;
36599;SDS011;35385;55.668;37.508;2023-04-01T01:03:37;13.77;;;10.00;;
36599;SDS011;35385;55.668;37.508;2023-04-01T01:04:38;13.23;;;10.17;;
36599;SDS011;35385;55.668;37.508;2023-04-01T01:05:45;14.70;;;10.87;;
36599;SDS011;35385;55.668;37.508;2023-04-01T01:10:47;13.77;;;10.95;;
36599;SDS011;35385;55.668;37.508;2023-04-01T01:11:28;13.80;;;10.73;;
36599;SDS011;35385;55.668;37.508;2023-04-01T01:12:40;14.43;;;11.40;;
36599;SDS011;35385;55.668;37.508;2023-04-01T01:15:41;14.25;;;11.57;;
36599;SDS011;35385;55.668;37.508;2023-04-01T01:16:45;17.92;;;11.85;;
36599;SDS011;35385;55.668;37.508;2023-04-01T01:22:20;15.00;;;11.48;;
36599;SDS011;35385;55.668;37.508;2023-04-01T01:23:56;13.52;;;10.88;;
36599;SDS011;35385;55.668;37.508;2023-04-01T01:27:34;15.60;;;11.48;;
36599;SDS011;35385;55.668;37.508;2023-04-01T01:31:22;15.65;;;12.43;;
36599;SDS011;35385;55.668;37.508;2023-04-01T01:34:03;17.20;;;12.07;;
36599;SDS011;35385;55.668;37.508;2023-04-01T01:36:35;15.90;;;12.48;;
36599;SDS011;35385;55.668;37.508;2023-04-01T01:37:39;16.20;;;13.13;;
36599;SDS011;35385;55.668;37.508;2023-04-01T01:38:41;16.45;;;12.80;;
36599;SDS011;35385;55.668;37.508;2023-04-01T01:39:46;16.07;;;12.40;;
36599;SDS011;35385;55.668;37.508;2023-04-01T01:40:53;17.98;;;13.45;;
36599;SDS011;35385;55.668;37.508;2023-04-01T01:41:58;17.90;;;13.10;;
36599;SDS011;35385;55.668;37.508;2023-04-01T01:43:04;17.13;;;13.27;;
36599;SDS011;35385;55.668;37.508;2023-04-01T01:44:07;18.38;;;13.13;;
36599;SDS011;35385;55.668;37.508;2023-04-01T01:45:10;15.95;;;12.63;;
36599;SDS011;35385;55.668;37.508;2023-04-01T01:46:14;18.38;;;13.98;;
36599;SDS011;35385;55.668;37.508;2023-04-01T01:47:21;16.20;;;12.18;;
36599;SDS011;35385;55.668;37.508;2023-04-01T01:48:23;19.92;;;13.50;;
36599;SDS011;35385;55.668;37.508;2023-04-01T01:49:27;20.35;;;14.25;;
36599;SDS011;35385;55.668;37.508;2023-04-01T01:50:30;19.17;;;14.05;;
36599;SDS011;35385;55.668;37.508;2023-04-01T01:51:31;19.05;;;14.20;;
36599;SDS011;35385;55.668;37.508;2023-04-01T01:52:32;18.07;;;13.90;;
36599;SDS011;35385;55.668;37.508;2023-04-01T01:53:32;18.23;;;13.87;;
36599;SDS011;35385;55.668;37.508;2023-04-01T01:54:33;17.93;;;13.60;;
36599;SDS011;35385;55.668;37.508;2023-04-01T01:55:35;20.83;;;14.10;;
36599;SDS011;35385;55.668;37.508;2023-04-01T01:56:37;18.65;;;14.35;;
36599;SDS011;35385;55.668;37.508;2023-04-01T01:57:39;17.90;;;14.38;;
36599;SDS011;35385;55.668;37.508;2023-04-01T01:58:45;18.90;;;14.05;;
36599;SDS011;35385;55.668;37.508;2023-04-01T01:59:49;17.65;;;12.95;;
36599;SDS011;35385;55.668;37.508;2023-04-01T02:01:02;17.75;;;13.75;;
36599;SDS011;35385;55.668;37.508;2023-04-01T02:02:06;18.42;;;14.02;;
36599;SDS011;35385;55.668;37.508;2023-04-01T02:03:10;18.50;;;13.20;;
36599;SDS011;35385;55.668;37.508;2023-04-01T02:04:13;18.38;;;13.48;;
36599;SDS011;35385;55.668;37.508;2023-04-01T02:05:16;18.90;;;14.30;;
36599;SDS011;35385;55.668;37.508;2023-04-01T02:06:22;21.90;;;14.77;;
36599;SDS011;35385;55.668;37.508;2023-04-01T02:07:28;21.15;;;14.65;;
36599;SDS011;35385;55.668;37.508;2023-04-01T02:08:35;19.52;;;14.40;;
36599;SDS011;35385;55.668;37.508;2023-04-01T02:09:55;19.30;;;14.10;;
36599;SDS011;35385;55.668;37.508;2023-04-01T02:11:00;20.75;;;13.85;;
36599;SDS011;35385;55.668;37.508;2023-04-01T02:12:04;20.33;;;14.93;;
36599;SDS011;35385;55.668;37.508;2023-04-01T02:13:09;19.15;;;13.75;;
36599;SDS011;35385;55.668;37.508;2023-04-01T02:14:18;19.17;;;14.45;;
36599;SDS011;35385;55.668;37.508;2023-04-01T02:15:22;17.83;;;13.38;;
36599;SDS011;35385;55.668;37.508;2023-04-01T02:16:33;20.33;;;14.57;;
36599;SDS011;35385;55.668;37.508;2023-04-01T02:17:39;18.75;;;13.52;;
36599;SDS011;35385;55.668;37.508;2023-04-01T02:18:43;20.52;;;14.70;;
36599;SDS011;35385;55.668;37.508;2023-04-01T02:19:48;18.25;;;13.30;;
36599;SDS011;35385;55.668;37.508;2023-04-01T02:20:53;19.55;;;14.13;;
36599;SDS011;35385;55.668;37.508;2023-04-01T02:21:57;19.48;;;13.50;;
36599;SDS011;35385;55.668;37.508;2023-04-01T02:23:01;17.10;;;13.10;;
36599;SDS011;35385;55.668;37.508;2023-04-01T02:24:04;16.13;;;11.68;;
36599;SDS011;35385;55.668;37.508;2023-04-01T02:25:09;16.90;;;12.07;;
36599;SDS011;35385;55.668;37.508;2023-04-01T02:26:12;15.68;;;12.32;;
36599;SDS011;35385;55.668;37.508;2023-04-01T02:27:14;14.70;;;11.88;;
36599;SDS011;35385;55.668;37.508;2023-04-01T02:28:15;15.53;;;12.50;;
36599;SDS011;35385;55.668;37.508;2023-04-01T02:29:20;17.38;;;12.35;;
36599;SDS011;35385;55.668;37.508;2023-04-01T02:30:23;15.75;;;12.38;;
36599;SDS011;35385;55.668;37.508;2023-04-01T02:31:25;17.85;;;13.50;;
36599;SDS011;35385;55.668;37.508;2023-04-01T02:32:26;17.40;;;12.73;;
36599;SDS011;35385;55.668;37.508;2023-04-01T02:33:30;16.05;;;11.55;;
36599;SDS011;35385;55.668;37.508;2023-04-01T02:34:31;16.02;;;12.32;;
36599;SDS011;35385;55.668;37.508;2023-04-01T02:35:35;18.50;;;12.80;;
36599;SDS011;35385;55.668;37.508;2023-04-01T02:36:37;19.27;;;12.23;;
36599;SDS011;35385;55.668;37.508;2023-04-01T02:37:38;16.02;;;12.43;;
36599;SDS011;35385;55.668;37.508;2023-04-01T02:38:43;16.63;;;12.27;;
36599;SDS011;35385;55.668;37.508;2023-04-01T02:39:45;18.38;;;13.18;;
36599;SDS011;35385;55.668;37.508;2023-04-01T02:40:47;19.27;;;13.63;;
36599;SDS011;35385;55.668;37.508;2023-04-01T02:41:49;19.70;;;13.75;;
36599;SDS011;35385;55.668;37.508;2023-04-01T02:42:50;18.70;;;12.97;;
36599;SDS011;35385;55.668;37.508;2023-04-01T02:43:50;16.17;;;12.60;;
36599;SDS011;35385;55.668;37.508;2023-04-01T02:44:51;15.93;;;12.33;;
36599;SDS011;35385;55.668;37.508;2023-04-01T02:45:52;18.97;;;13.27;;
36599;SDS011;35385;55.668;37.508;2023-04-01T02:46:52;14.83;;;11.13;;
36599;SDS011;35385;55.668;37.508;2023-04-01T02:47:53;17.43;;;12.80;;
36599;SDS011;35385;55.668;37.508;2023-04-01T02:48:53;17.13;;;12.50;;
36599;SDS011;35385;55.668;37.508;2023-04-01T02:49:54;14.37;;;11.17;;
36599;SDS011;35385;55.668;37.508;2023-04-01T02:50:57;18.73;;;11.95;;
36599;SDS011;35385;55.668;37.508;2023-04-01T02:51:58;16.87;;;12.23;;
36599;SDS011;35385;55.668;37.508;2023-04-01T02:52:59;17.47;;;12.47;;
36599;SDS011;35385;55.668;37.508;2023-04-01T02:54:00;16.13;;;12.07;;
36599;SDS011;35385;55.668;37.508;2023-04-01T02:55:01;15.27;;;11.65;;
36599;SDS011;35385;55.668;37.508;2023-04-01T02:56:03;15.73;;;11.50;;
36599;SDS011;35385;55.668;37.508;2023-04-01T02:57:04;16.88;;;11.10;;
36599;SDS011;35385;55.668;37.508;2023-04-01T02:58:04;14.80;;;12.00;;
36599;SDS011;35385;55.668;37.508;2023-04-01T02:59:05;16.77;;;12.03;;
36599;SDS011;35385;55.668;37.508;2023-04-01T03:00:05;16.47;;;11.67;;
36599;SDS011;35385;55.668;37.508;2023-04-01T03:01:11;17.42;;;12.32;;
36599;SDS011;35385;55.668;37.508;2023-04-01T03:02:12;16.45;;;12.10;;
36599;SDS011;35385;55.668;37.508;2023-04-01T03:03:13;17.75;;;12.48;;
36599;SDS011;35385;55.668;37.508;2023-04-01T03:04:13;17.20;;;12.80;;
36599;SDS011;35385;55.668;37.508;2023-04-01T03:05:14;15.43;;;12.03;;
36599;SDS011;35385;55.668;37.508;2023-04-01T03:06:15;15.47;;;11.27;;
36599;SDS011;35385;55.668;37.508;2023-04-01T03:07:16;14.15;;;10.80;;
36599;SDS011;35385;55.668;37.508;2023-04-01T03:08:17;14.83;;;12.03;;
36599;SDS011;35385;55.668;37.508;2023-04-01T03:09:17;15.67;;;11.50;;
36599;SDS011;35385;55.668;37.508;2023-04-01T03:10:18;15.57;;;11.40;;
36599;SDS011;35385;55.668;37.508;2023-04-01T03:11:18;13.57;;;10.40;;
36599;SDS011;35385;55.668;37.508;2023-04-01T03:12:19;15.40;;;11.45;;
36599;SDS011;35385;55.668;37.508;2023-04-01T03:13:20;15.67;;;11.17;;
36599;SDS011;35385;55.668;37.508;2023-04-01T03:14:20;13.27;;;10.23;;
36599;SDS011;35385;55.668;37.508;2023-04-01T03:15:21;13.27;;;10.47;;
36599;SDS011;35385;55.668;37.508;2023-04-01T03:16:23;13.57;;;10.27;;
36599;SDS011;35385;55.668;37.508;2023-04-01T03:17:23;13.48;;;10.38;;
36599;SDS011;35385;55.668;37.508;2023-04-01T03:18:24;14.40;;;10.40;;
36599;SDS011;35385;55.668;37.508;2023-04-01T03:19:24;13.20;;;8.97;;
36599;SDS011;35385;55.668;37.508;2023-04-01T03:20:25;14.27;;;10.03;;
36599;SDS011;35385;55.668;37.508;2023-04-01T03:21:26;13.50;;;10.13;;
36599;SDS011;35385;55.668;37.508;2023-04-01T03:22:26;14.30;;;10.30;;
36599;SDS011;35385;55.668;37.508;2023-04-01T03:23:27;12.70;;;9.50;;
36599;SDS011;35385;55.668;37.508;2023-04-01T03:24:27;13.80;;;10.83;;
36599;SDS011;35385;55.668;37.508;2023-04-01T03:25:28;15.73;;;10.80;;
36599;SDS011;35385;55.668;37.508;2023-04-01T03:26:30;13.73;;;10.65;;
36599;SDS011;35385;55.668;37.508;2023-04-01T03:27:31;15.17;;;10.07;;
36599;SDS011;35385;55.668;37.508;2023-04-01T03:28:33;13.13;;;9.88;;
36599;SDS011;35385;55.668;37.508;2023-04-01T03:29:33;13.50;;;10.03;;
36599;SDS011;35385;55.668;37.508;2023-04-01T03:30:34;12.63;;;9.47;;
36599;SDS011;35385;55.668;37.508;2023-04-01T03:31:34;13.40;;;9.77;;
36599;SDS011;35385;55.668;37.508;2023-04-01T03:32:35;13.05;;;9.70;;
36599;SDS011;35385;55.668;37.508;2023-04-01T03:33:36;13.07;;;9.70;;
36599;SDS011;35385;55.668;37.508;2023-04-01T03:34:36;12.83;;;10.10;;
36599;SDS011;35385;55.668;37.508;2023-04-01T03:35:37;12.67;;;9.70;;
36599;SDS011;35385;55.668;37.508;2023-04-01T03:36:37;12.50;;;9.60;;
36599;SDS011;35385;55.668;37.508;2023-04-01T03:37:38;12.60;;;9.50;;
36599;SDS011;35385;55.668;37.508;2023-04-01T03:38:42;14.53;;;10.20;;
36599;SDS011;35385;55.668;37.508;2023-04-01T03:39:43;12.05;;;9.95;;
36599;SDS011;35385;55.668;37.508;2023-04-01T03:40:44;13.27;;;10.07;;
36599;SDS011;35385;55.668;37.508;2023-04-01T03:41:45;12.15;;;9.30;;
36599;SDS011;35385;55.668;37.508;2023-04-01T03:42:46;13.38;;;10.15;;
36599;SDS011;35385;55.668;37.508;2023-04-01T03:43:47;14.40;;;9.80;;
36599;SDS011;35385;55.668;37.508;2023-04-01T03:44:47;13.10;;;10.03;;
36599;SDS011;35385;55.668;37.508;2023-04-01T03:45:48;13.13;;;9.47;;
36599;SDS011;35385;55.668;37.508;2023-04-01T03:46:50;14.10;;;9.98;;
36599;SDS011;35385;55.668;37.508;2023-04-01T03:47:51;13.90;;;10.43;;
36599;SDS011;35385;55.668;37.508;2023-04-01T03:48:51;14.97;;;10.43;;
36599;SDS011;35385;55.668;37.508;2023-04-01T03:49:52;13.40;;;10.23;;
36599;SDS011;35385;55.668;37.508;2023-04-01T03:50:53;13.95;;;10.07;;
36599;SDS011;35385;55.668;37.508;2023-04-01T03:51:53;12.63;;;9.90;;
36599;SDS011;35385;55.668;37.508;2023-04-01T03:52:54;13.80;;;10.30;;
36599;SDS011;35385;55.668;37.508;2023-04-01T03:53:54;12.83;;;10.47;;
36599;SDS011;35385;55.668;37.508;2023-04-01T03:54:55;16.77;;;10.40;;
36599;SDS011;35385;55.668;37.508;2023-04-01T03:55:55;12.07;;;9.83;;
36599;SDS011;35385;55.668;37.508;2023-04-01T03:56:56;13.43;;;10.07;;
36599;SDS011;35385;55.668;37.508;2023-04-01T03:58:58;12.63;;;9.68;;
36599;SDS011;35385;55.668;37.508;2023-04-01T04:00:01;13.68;;;10.15;;
36599;SDS011;35385;55.668;37.508;2023-04-01T04:01:02;13.52;;;10.00;;
36599;SDS011;35385;55.668;37.508;2023-04-01T04:02:02;12.90;;;10.33;;
36599;SDS011;35385;55.668;37.508;2023-04-01T04:03:03;13.90;;;10.30;;
36599;SDS011;35385;55.668;37.508;2023-04-01T04:04:04;12.97;;;10.40;;
36599;SDS011;35385;55.668;37.508;2023-04-01T04:05:04;12.57;;;10.07;;
36599;SDS011;35385;55.668;37.508;2023-04-01T04:06:10;15.52;;;10.98;;
36599;SDS011;35385;55.668;37.508;2023-04-01T04:07:11;14.02;;;10.88;;
36599;SDS011;35385;55.668;37.508;2023-04-01T04:08:12;14.82;;;11.32;;
36599;SDS011;35385;55.668;37.508;2023-04-01T04:09:13;17.30;;;11.90;;
36599;SDS011;35385;55.668;37.508;2023-04-01T04:10:13;14.33;;;11.33;;
36599;SDS011;35385;55.668;37.508;2023-04-01T04:11:14;14.27;;;11.10;;
36599;SDS011;35385;55.668;37.508;2023-04-01T04:12:15;12.63;;;10.10;;
36599;SDS011;35385;55.668;37.508;2023-04-01T04:13:16;14.07;;;10.67;;
36599;SDS011;35385;55.668;37.508;2023-04-01T04:14:16;14.63;;;10.77;;
36599;SDS011;35385;55.668;37.508;2023-04-01T04:15:17;13.57;;;10.37;;
36599;SDS011;35385;55.668;37.508;2023-04-01T04:16:18;14.30;;;11.23;;
36599;SDS011;35385;55.668;37.508;2023-04-01T04:17:18;14.60;;;10.47;;
36599;SDS011;35385;55.668;37.508;2023-04-01T04:18:19;15.23;;;9.73;;
36599;SDS011;35385;55.668;37.508;2023-04-01T04:19:19;12.40;;;10.07;;
36599;SDS011;35385;55.668;37.508;2023-04-01T04:20:20;14.97;;;11.20;;
36599;SDS011;35385;55.668;37.508;2023-04-01T04:21:20;15.00;;;10.87;;
36599;SDS011;35385;55.668;37.508;2023-04-01T04:22:21;16.90;;;10.53;;
36599;SDS011;35385;55.668;37.508;2023-04-01T04:23:22;13.77;;;10.33;;
36599;SDS011;35385;55.668;37.508;2023-04-01T04:24:22;12.80;;;9.57;;
36599;SDS011;35385;55.668;37.508;2023-04-01T04:25:23;12.77;;;10.07;;
36599;SDS011;35385;55.668;37.508;2023-04-01T04:26:23;14.27;;;10.53;;
36599;SDS011;35385;55.668;37.508;2023-04-01T04:27:24;12.23;;;9.97;;
36599;SDS011;35385;55.668;37.508;2023-04-01T04:28:25;14.17;;;10.50;;
36599;SDS011;35385;55.668;37.508;2023-04-01T04:29:27;15.20;;;11.07;;
36599;SDS011;35385;55.668;37.508;2023-04-01T04:30:27;14.33;;;10.77;;
36599;SDS011;35385;55.668;37.508;2023-04-01T04:31:28;14.93;;;11.20;;
36599;SDS011;35385;55.668;37.508;2023-04-01T04:32:29;17.67;;;11.23;;
36599;SDS011;35385;55.668;37.508;2023-04-01T04:33:30;15.77;;;11.40;;
36599;SDS011;35385;55.668;37.508;2023-04-01T04:34:31;14.87;;;11.13;;
36599;SDS011;35385;55.668;37.508;2023-04-01T04:35:31;16.33;;;11.27;;
36599;SDS011;35385;55.668;37.508;2023-04-01T04:36:33;16.35;;;11.57;;
36599;SDS011;35385;55.668;37.508;2023-04-01T04:37:33;16.30;;;11.83;;
36599;SDS011;35385;55.668;37.508;2023-04-01T04:38:34;17.80;;;11.93;;
36599;SDS011;35385;55.668;37.508;2023-04-01T04:39:34;17.17;;;11.97;;
36599;SDS011;35385;55.668;37.508;2023-04-01T04:40:38;13.50;;;10.60;;
36599;SDS011;35385;55.668;37.508;2023-04-01T04:41:39;15.38;;;10.82;;
36599;SDS011;35385;55.668;37.508;2023-04-01T04:42:40;22.75;;;16.35;;
36599;SDS011;35385;55.668;37.508;2023-04-01T04:43:41;17.63;;;12.73;;
36599;SDS011;35385;55.668;37.508;2023-04-01T04:44:42;17.58;;;12.82;;
36599;SDS011;35385;55.668;37.508;2023-04-01T04:45:42;14.93;;;10.93;;
36599;SDS011;35385;55.668;37.508;2023-04-01T04:46:43;17.75;;;12.23;;
36599;SDS011;35385;55.668;37.508;2023-04-01T04:47:44;16.97;;;11.83;;
36599;SDS011;35385;55.668;37.508;2023-04-01T04:48:44;19.30;;;12.97;;
36599;SDS011;35385;55.668;37.508;2023-04-01T04:49:45;15.88;;;12.43;;
36599;SDS011;35385;55.668;37.508;2023-04-01T04:50:47;17.40;;;13.00;;
36599;SDS011;35385;55.668;37.508;2023-04-01T04:51:48;19.65;;;13.05;;
36599;SDS011;35385;55.668;37.508;2023-04-01T04:52:49;19.73;;;13.35;;
36599;SDS011;35385;55.668;37.508;2023-04-01T04:53:50;17.37;;;13.10;;
36599;SDS011;35385;55.668;37.508;2023-04-01T04:54:51;20.60;;;13.37;;
36599;SDS011;35385;55.668;37.508;2023-04-01T04:55:51;17.63;;;13.57;;
36599;SDS011;35385;55.668;37.508;2023-04-01T04:56:52;20.05;;;13.73;;
36599;SDS011;35385;55.668;37.508;2023-04-01T04:57:53;20.83;;;14.20;;
36599;SDS011;35385;55.668;37.508;2023-04-01T04:58:54;19.83;;;14.03;;
36599;SDS011;35385;55.668;37.508;2023-04-01T04:59:55;18.55;;;13.75;;
36599;SDS011;35385;55.668;37.508;2023-04-01T05:00:55;20.63;;;13.80;;
36599;SDS011;35385;55.668;37.508;2023-04-01T05:01:56;23.67;;;15.23;;
36599;SDS011;35385;55.668;37.508;2023-04-01T05:02:56;21.83;;;14.83;;
36599;SDS011;35385;55.668;37.508;2023-04-01T05:03:57;20.37;;;13.70;;
36599;SDS011;35385;55.668;37.508;2023-04-01T05:04:57;18.43;;;13.27;;
36599;SDS011;35385;55.668;37.508;2023-04-01T05:05:58;20.90;;;13.73;;
36599;SDS011;35385;55.668;37.508;2023-04-01T05:06:58;18.13;;;12.87;;
36599;SDS011;35385;55.668;37.508;2023-04-01T05:07:59;19.00;;;13.17;;
36599;SDS011;35385;55.668;37.508;2023-04-01T05:09:00;19.03;;;14.13;;
36599;SDS011;35385;55.668;37.508;2023-04-01T05:10:00;20.10;;;13.83;;
36599;SDS011;35385;55.668;37.508;2023-04-01T05:11:01;19.67;;;13.40;;
36599;SDS011;35385;55.668;37.508;2023-04-01T05:12:02;22.15;;;15.00;;
36599;SDS011;35385;55.668;37.508;2023-04-01T05:13:03;19.10;;;13.53;;
36599;SDS011;35385;55.668;37.508;2023-04-01T05:14:03;19.63;;;13.10;;
36599;SDS011;35385;55.668;37.508;2023-04-01T05:15:05;21.57;;;13.87;;
36599;SDS011;35385;55.668;37.508;2023-04-01T05:16:10;22.75;;;13.68;;
36599;SDS011;35385;55.668;37.508;2023-04-01T05:17:12;19.70;;;13.63;;
36599;SDS011;35385;55.668;37.508;2023-04-01T05:18:13;22.33;;;15.37;;
36599;SDS011;35385;55.668;37.508;2023-04-01T05:19:13;19.83;;;13.40;;
36599;SDS011;35385;55.668;37.508;2023-04-01T05:20:14;18.03;;;12.67;;
36599;SDS011;35385;55.668;37.508;2023-04-01T05:21:15;18.83;;;12.63;;
36599;SDS011;35385;55.668;37.508;2023-04-01T05:22:16;22.23;;;14.17;;
36599;SDS011;35385;55.668;37.508;2023-04-01T05:23:16;19.77;;;13.77;;
36599;SDS011;35385;55.668;37.508;2023-04-01T05:24:18;21.00;;;13.02;;
36599;SDS011;35385;55.668;37.508;2023-04-01T05:25:18;21.73;;;13.33;;
36599;SDS011;35385;55.668;37.508;2023-04-01T05:26:18;22.73;;;14.00;;
36599;SDS011;35385;55.668;37.508;2023-04-01T05:27:19;21.30;;;13.43;;
36599;SDS011;35385;55.668;37.508;2023-04-01T05:28:20;21.35;;;14.02;;
36599;SDS011;35385;55.668;37.508;2023-04-01T05:29:20;20.77;;;15.07;;
36599;SDS011;35385;55.668;37.508;2023-04-01T05:30:21;20.57;;;14.07;;
36599;SDS011;35385;55.668;37.508;2023-04-01T05:31:22;20.17;;;13.83;;
36599;SDS011;35385;55.668;37.508;2023-04-01T05:32:24;21.48;;;14.02;;
36599;SDS011;35385;55.668;37.508;2023-04-01T05:33:24;24.97;;;14.37;;
36599;SDS011;35385;55.668;37.508;2023-04-01T05:34:25;20.00;;;13.60;;
36599;SDS011;35385;55.668;37.508;2023-04-01T05:35:25;20.00;;;13.87;;
36599;SDS011;35385;55.668;37.508;2023-04-01T05:36:26;18.23;;;13.47;;
36599;SDS011;35385;55.668;37.508;2023-04-01T05:37:26;23.57;;;14.47;;
36599;SDS011;35385;55.668;37.508;2023-04-01T05:38:27;19.80;;;12.67;;
36599;SDS011;35385;55.668;37.508;2023-04-01T05:39:27;19.53;;;14.03;;
36599;SDS011;35385;55.668;37.508;2023-04-01T05:40:28;20.17;;;14.40;;
36599;SDS011;35385;55.668;37.508;2023-04-01T05:41:30;20.88;;;13.57;;
36599;SDS011;35385;55.668;37.508;2023-04-01T05:42:30;17.70;;;12.83;;
36599;SDS011;35385;55.668;37.508;2023-04-01T05:43:31;20.43;;;13.67;;
36599;SDS011;35385;55.668;37.508;2023-04-01T05:44:35;20.38;;;13.20;;
36599;SDS011;35385;55.668;37.508;2023-04-01T05:45:36;19.67;;;13.40;;
36599;SDS011;35385;55.668;37.508;2023-04-01T05:46:37;20.45;;;13.13;;
36599;SDS011;35385;55.668;37.508;2023-04-01T05:47:38;20.13;;;13.60;;
36599;SDS011;35385;55.668;37.508;2023-04-01T05:48:38;22.23;;;14.40;;
36599;SDS011;35385;55.668;37.508;2023-04-01T05:49:39;20.57;;;13.73;;
36599;SDS011;35385;55.668;37.508;2023-04-01T05:50:40;20.00;;;12.93;;
36599;SDS011;35385;55.668;37.508;2023-04-01T05:51:42;17.90;;;11.90;;
36599;SDS011;35385;55.668;37.508;2023-04-01T05:52:42;18.23;;;13.27;;
36599;SDS011;35385;55.668;37.508;2023-04-01T05:53:43;21.37;;;13.67;;
36599;SDS011;35385;55.668;37.508;2023-04-01T05:54:43;17.23;;;12.17;;
36599;SDS011;35385;55.668;37.508;2023-04-01T05:55:44;19.90;;;13.77;;
36599;SDS011;35385;55.668;37.508;2023-04-01T05:56:45;20.83;;;13.50;;
36599;SDS011;35385;55.668;37.508;2023-04-01T05:57:46;19.97;;;13.17;;
36599;SDS011;35385;55.668;37.508;2023-04-01T05:58:50;19.30;;;13.10;;
36599;SDS011;35385;55.668;37.508;2023-04-01T05:59:52;20.35;;;14.10;;
36599;SDS011;35385;55.668;37.508;2023-04-01T06:00:59;24.20;;;13.67;;
36599;SDS011;35385;55.668;37.508;2023-04-01T06:02:01;18.80;;;12.63;;
36599;SDS011;35385;55.668;37.508;2023-04-01T06:03:01;22.43;;;13.20;;
36599;SDS011;35385;55.668;37.508;2023-04-01T06:04:02;19.38;;;13.50;;
36599;SDS011;35385;55.668;37.508;2023-04-01T06:05:10;21.87;;;14.20;;
36599;SDS011;35385;55.668;37.508;2023-04-01T06:06:15;21.10;;;13.35;;
36599;SDS011;35385;55.668;37.508;2023-04-01T06:07:23;22.25;;;14.38;;
36599;SDS011;35385;55.668;37.508;2023-04-01T06:08:24;22.23;;;14.60;;
36599;SDS011;35385;55.668;37.508;2023-04-01T06:09:29;19.90;;;13.10;;
36599;SDS011;35385;55.668;37.508;2023-04-01T06:10:36;22.95;;;14.07;;
36599;SDS011;35385;55.668;37.508;2023-04-01T06:13:01;21.42;;;13.80;;
36599;SDS011;35385;55.668;37.508;2023-04-01T06:14:38;22.42;;;14.05;;
36599;SDS011;35385;55.668;37.508;2023-04-01T06:18:38;22.63;;;14.15;;
36599;SDS011;35385;55.668;37.508;2023-04-01T06:20:12;24.83;;;15.23;;
36599;SDS011;35385;55.668;37.508;2023-04-01T06:27:21;24.67;;;15.60;;
36599;SDS011;35385;55.668;37.508;2023-04-01T06:30:33;30.70;;;16.63;;
36599;SDS011;35385;55.668;37.508;2023-04-01T06:33:02;30.90;;;16.90;;
36599;SDS011;35385;55.668;37.508;2023-04-01T06:38:48;33.20;;;17.95;;
36599;SDS011;35385;55.668;37.508;2023-04-01T06:40:12;26.85;;;16.40;;